Main page
METAR-TAF:

METAR-TAF

Airports :

Bandırma Airport

Bandirma, Turkey

latitude: 40-19N, longitude: 027-58E, elevation: 51 m

METAR: missing

Time: 08:30 (05:30 UTC)

Forecast

The report was made 3 hours and 50 minutes ago, at 01:40 UTC
Forecast valid from 21 at 03 UTC to 21 at 12 UTC
Wind 10 kt from the North/Northeast
Visibility 10 km or more
Scattered clouds at a height of 1000 ft
Broken clouds at a height of 3000 ft
Becoming
from 21 at 06 UTC to 21 at 09 UTC
Few clouds at a height of 3500 ft

TAF: LTBG 210140Z 2103/2112 03010KT 9999 SCT010 BKN030 BECMG 2106/2109 FEW035

Weather observations and forecasts of more than 4000 airports (METAR and TAF reports).

The available stations are represented by yellow and red dots on the map.

Hover mouse over dot to see the name of the station.

Then click to see weather observations and forecasts.

To change the map : click on the green buttons with a black cross to zoom in, on the green button with a dash to zoom out, or on the green arrows for adjacent maps.


METAR-TAF: